sensor_id;sensor_type;location;lat;lon;timestamp;pressure;altitude;pressure_sealevel;temperature;humidity
2549;BME280;1284;53.520;10.248;2023-01-25T00:00:47;103088.97;;;3.82;84.40
2549;BME280;1284;53.520;10.248;2023-01-25T00:03:13;103089.22;;;4.02;83.29
2549;BME280;1284;53.520;10.248;2023-01-25T00:05:38;103091.41;;;3.83;83.58
2549;BME280;1284;53.520;10.248;2023-01-25T00:08:04;103083.72;;;3.65;84.37
2549;BME280;1284;53.520;10.248;2023-01-25T00:10:29;103086.56;;;3.80;84.28
2549;BME280;1284;53.520;10.248;2023-01-25T00:12:55;103067.44;;;3.83;84.17
2549;BME280;1284;53.520;10.248;2023-01-25T00:15:21;103068.91;;;3.74;83.77
2549;BME280;1284;53.520;10.248;2023-01-25T00:17:47;103056.28;;;3.43;84.55
2549;BME280;1284;53.520;10.248;2023-01-25T00:20:12;103057.34;;;3.04;86.16
2549;BME280;1284;53.520;10.248;2023-01-25T00:22:38;103060.31;;;3.07;85.90
2549;BME280;1284;53.520;10.248;2023-01-25T00:25:03;103064.69;;;3.13;85.63
2549;BME280;1284;53.520;10.248;2023-01-25T00:27:29;103067.34;;;3.13;85.92
2549;BME280;1284;53.520;10.248;2023-01-25T00:29:54;103063.19;;;3.22;85.67
2549;BME280;1284;53.520;10.248;2023-01-25T00:34:47;103044.38;;;3.50;85.47
2549;BME280;1284;53.520;10.248;2023-01-25T00:37:38;103040.38;;;3.48;85.08
2549;BME280;1284;53.520;10.248;2023-01-25T00:40:08;103057.81;;;3.39;85.18
2549;BME280;1284;53.520;10.248;2023-01-25T00:42:36;103047.25;;;3.44;84.81
2549;BME280;1284;53.520;10.248;2023-01-25T00:45:03;103044.06;;;3.25;85.37
2549;BME280;1284;53.520;10.248;2023-01-25T00:47:29;103038.00;;;3.30;85.31
2549;BME280;1284;53.520;10.248;2023-01-25T00:49:54;103037.47;;;3.49;85.32
2549;BME280;1284;53.520;10.248;2023-01-25T00:52:19;103041.72;;;3.50;85.03
2549;BME280;1284;53.520;10.248;2023-01-25T00:54:47;103037.03;;;3.57;84.31
2549;BME280;1284;53.520;10.248;2023-01-25T00:57:12;103026.66;;;3.61;84.95
2549;BME280;1284;53.520;10.248;2023-01-25T00:59:38;103024.09;;;3.44;84.51
2549;BME280;1284;53.520;10.248;2023-01-25T01:02:09;103021.91;;;3.41;85.46
2549;BME280;1284;53.520;10.248;2023-01-25T01:04:34;103016.66;;;3.46;85.56
2549;BME280;1284;53.520;10.248;2023-01-25T01:07:00;103026.25;;;3.47;85.08
2549;BME280;1284;53.520;10.248;2023-01-25T01:09:26;103020.09;;;3.25;84.54
2549;BME280;1284;53.520;10.248;2023-01-25T01:11:52;103015.09;;;3.29;85.58
2549;BME280;1284;53.520;10.248;2023-01-25T01:14:19;103012.38;;;3.24;85.59
2549;BME280;1284;53.520;10.248;2023-01-25T01:16:45;103013.19;;;3.24;85.66
2549;BME280;1284;53.520;10.248;2023-01-25T01:19:10;103022.63;;;3.37;85.54
2549;BME280;1284;53.520;10.248;2023-01-25T01:21:36;103008.97;;;3.28;85.36
2549;BME280;1284;53.520;10.248;2023-01-25T01:24:02;103017.53;;;3.30;85.14
2549;BME280;1284;53.520;10.248;2023-01-25T01:26:27;103012.19;;;3.30;85.60
2549;BME280;1284;53.520;10.248;2023-01-25T01:28:53;103017.88;;;3.39;85.91
2549;BME280;1284;53.520;10.248;2023-01-25T01:31:22;103010.41;;;3.36;84.82
2549;BME280;1284;53.520;10.248;2023-01-25T01:34:11;103007.56;;;3.21;85.36
2549;BME280;1284;53.520;10.248;2023-01-25T01:36:37;103019.66;;;3.12;85.61
2549;BME280;1284;53.520;10.248;2023-01-25T01:39:03;103011.88;;;3.05;86.83
2549;BME280;1284;53.520;10.248;2023-01-25T01:41:28;103008.28;;;3.16;86.19
2549;BME280;1284;53.520;10.248;2023-01-25T01:43:54;103015.16;;;3.34;85.93
2549;BME280;1284;53.520;10.248;2023-01-25T01:46:24;103012.06;;;3.20;85.91
2549;BME280;1284;53.520;10.248;2023-01-25T01:49:04;103009.81;;;3.12;86.67
2549;BME280;1284;53.520;10.248;2023-01-25T01:51:53;102999.97;;;2.91;87.44
2549;BME280;1284;53.520;10.248;2023-01-25T01:54:42;103005.91;;;2.98;87.40
2549;BME280;1284;53.520;10.248;2023-01-25T01:57:15;102998.72;;;2.99;87.34
2549;BME280;1284;53.520;10.248;2023-01-25T01:59:54;102992.59;;;2.98;87.46
2549;BME280;1284;53.520;10.248;2023-01-25T02:02:22;102992.78;;;2.92;88.32
2549;BME280;1284;53.520;10.248;2023-01-25T02:04:50;102999.69;;;3.09;87.89
2549;BME280;1284;53.520;10.248;2023-01-25T02:07:22;102995.09;;;3.05;87.51
2549;BME280;1284;53.520;10.248;2023-01-25T02:09:50;103001.91;;;3.17;87.55
2549;BME280;1284;53.520;10.248;2023-01-25T02:12:17;102988.03;;;3.37;86.77
2549;BME280;1284;53.520;10.248;2023-01-25T02:14:47;102998.13;;;3.35;86.54
2549;BME280;1284;53.520;10.248;2023-01-25T02:17:28;102981.41;;;3.18;85.91
2549;BME280;1284;53.520;10.248;2023-01-25T02:20:07;102973.41;;;2.96;87.52
2549;BME280;1284;53.520;10.248;2023-01-25T02:23:00;102980.53;;;3.12;87.22
2549;BME280;1284;53.520;10.248;2023-01-25T02:25:29;102979.59;;;3.23;87.32
2549;BME280;1284;53.520;10.248;2023-01-25T02:28:00;102977.59;;;3.30;86.95
2549;BME280;1284;53.520;10.248;2023-01-25T02:30:28;102974.41;;;3.33;86.89
2549;BME280;1284;53.520;10.248;2023-01-25T02:32:55;102981.91;;;3.36;87.11
2549;BME280;1284;53.520;10.248;2023-01-25T02:35:24;102974.22;;;3.40;87.10
2549;BME280;1284;53.520;10.248;2023-01-25T02:37:50;102963.06;;;3.43;86.47
2549;BME280;1284;53.520;10.248;2023-01-25T02:40:17;102970.06;;;3.27;86.31
2549;BME280;1284;53.520;10.248;2023-01-25T02:42:44;102978.34;;;3.52;85.82
2549;BME280;1284;53.520;10.248;2023-01-25T02:45:15;102963.88;;;3.43;85.62
2549;BME280;1284;53.520;10.248;2023-01-25T02:47:40;102963.94;;;3.48;85.55
2549;BME280;1284;53.520;10.248;2023-01-25T02:50:07;102971.19;;;3.31;85.67
2549;BME280;1284;53.520;10.248;2023-01-25T02:52:32;102965.09;;;3.31;85.75
2549;BME280;1284;53.520;10.248;2023-01-25T02:54:58;102965.09;;;3.31;85.69
2549;BME280;1284;53.520;10.248;2023-01-25T02:57:24;102952.56;;;3.10;86.29
2549;BME280;1284;53.520;10.248;2023-01-25T02:59:49;102952.56;;;3.10;85.92
2549;BME280;1284;53.520;10.248;2023-01-25T03:02:16;102953.13;;;2.90;86.04
2549;BME280;1284;53.520;10.248;2023-01-25T03:04:42;102951.22;;;3.07;85.83
2549;BME280;1284;53.520;10.248;2023-01-25T03:07:08;102943.28;;;3.12;85.78
2549;BME280;1284;53.520;10.248;2023-01-25T03:09:34;102933.72;;;3.11;85.89
2549;BME280;1284;53.520;10.248;2023-01-25T03:12:00;102941.34;;;3.29;85.23
2549;BME280;1284;53.520;10.248;2023-01-25T03:14:25;102941.38;;;3.08;85.38
2549;BME280;1284;53.520;10.248;2023-01-25T03:16:51;102929.25;;;3.17;85.25
2549;BME280;1284;53.520;10.248;2023-01-25T03:19:19;102921.25;;;3.17;85.30
2549;BME280;1284;53.520;10.248;2023-01-25T03:21:45;102932.72;;;3.17;85.76
2549;BME280;1284;53.520;10.248;2023-01-25T03:24:11;102928.94;;;3.13;85.41
2549;BME280;1284;53.520;10.248;2023-01-25T03:26:42;102922.56;;;3.14;85.39
2549;BME280;1284;53.520;10.248;2023-01-25T03:29:35;102920.16;;;3.13;85.26
2549;BME280;1284;53.520;10.248;2023-01-25T03:32:04;102919.22;;;3.02;84.82
2549;BME280;1284;53.520;10.248;2023-01-25T03:34:30;102907.66;;;2.92;85.32
2549;BME280;1284;53.520;10.248;2023-01-25T03:36:57;102907.22;;;3.00;85.37
2549;BME280;1284;53.520;10.248;2023-01-25T03:39:23;102894.66;;;2.73;85.42
2549;BME280;1284;53.520;10.248;2023-01-25T03:41:48;102896.00;;;2.76;85.23
2549;BME280;1284;53.520;10.248;2023-01-25T03:44:14;102897.69;;;2.82;84.43
2549;BME280;1284;53.520;10.248;2023-01-25T03:46:41;102899.38;;;2.88;85.12
2549;BME280;1284;53.520;10.248;2023-01-25T03:49:07;102902.19;;;2.82;85.00
2549;BME280;1284;53.520;10.248;2023-01-25T03:51:33;102903.59;;;2.67;85.69
2549;BME280;1284;53.520;10.248;2023-01-25T03:53:59;102893.59;;;2.74;85.45
2549;BME280;1284;53.520;10.248;2023-01-25T03:56:24;102897.91;;;2.59;85.88
2549;BME280;1284;53.520;10.248;2023-01-25T03:59:05;102901.91;;;2.78;85.61
2549;BME280;1284;53.520;10.248;2023-01-25T04:01:31;102897.91;;;3.02;85.00
2549;BME280;1284;53.520;10.248;2023-01-25T04:03:58;102903.66;;;3.16;84.69
2549;BME280;1284;53.520;10.248;2023-01-25T04:06:23;102893.22;;;3.09;84.47
2549;BME280;1284;53.520;10.248;2023-01-25T04:08:49;102889.47;;;3.05;84.31
2549;BME280;1284;53.520;10.248;2023-01-25T04:11:16;102896.72;;;2.88;84.53
2549;BME280;1284;53.520;10.248;2023-01-25T04:13:44;102896.41;;;2.46;85.28
2549;BME280;1284;53.520;10.248;2023-01-25T04:16:12;102897.66;;;2.60;85.81
2549;BME280;1284;53.520;10.248;2023-01-25T04:18:56;102886.50;;;2.80;85.12
2549;BME280;1284;53.520;10.248;2023-01-25T04:21:22;102880.75;;;2.88;85.41
2549;BME280;1284;53.520;10.248;2023-01-25T04:23:47;102886.66;;;2.73;84.66
2549;BME280;1284;53.520;10.248;2023-01-25T04:26:13;102880.66;;;2.83;85.32
2549;BME280;1284;53.520;10.248;2023-01-25T04:28:41;102873.25;;;2.85;84.09
2549;BME280;1284;53.520;10.248;2023-01-25T04:31:07;102874.44;;;2.94;84.65
2549;BME280;1284;53.520;10.248;2023-01-25T04:33:38;102862.47;;;2.97;82.89
2549;BME280;1284;53.520;10.248;2023-01-25T04:36:04;102876.59;;;2.97;83.62
2549;BME280;1284;53.520;10.248;2023-01-25T04:38:30;102867.78;;;2.75;83.46
2549;BME280;1284;53.520;10.248;2023-01-25T04:40:56;102865.34;;;2.90;83.93
2549;BME280;1284;53.520;10.248;2023-01-25T04:43:22;102864.50;;;3.11;83.29
2549;BME280;1284;53.520;10.248;2023-01-25T04:45:52;102853.06;;;2.89;83.05
2549;BME280;1284;53.520;10.248;2023-01-25T04:48:24;102860.50;;;2.87;83.86
2549;BME280;1284;53.520;10.248;2023-01-25T04:50:55;102852.25;;;2.89;83.85
2549;BME280;1284;53.520;10.248;2023-01-25T04:53:22;102852.59;;;2.92;83.89
2549;BME280;1284;53.520;10.248;2023-01-25T04:55:48;102851.00;;;2.96;83.73
2549;BME280;1284;53.520;10.248;2023-01-25T04:58:14;102850.22;;;2.96;82.90
2549;BME280;1284;53.520;10.248;2023-01-25T05:00:41;102843.75;;;2.65;83.17
2549;BME280;1284;53.520;10.248;2023-01-25T05:03:07;102830.81;;;2.73;83.88
2549;BME280;1284;53.520;10.248;2023-01-25T05:05:32;102841.97;;;2.70;83.39
2549;BME280;1284;53.520;10.248;2023-01-25T05:08:02;102833.03;;;2.82;83.73
2549;BME280;1284;53.520;10.248;2023-01-25T05:10:28;102827.53;;;2.88;83.47
2549;BME280;1284;53.520;10.248;2023-01-25T05:13:14;102830.94;;;2.84;83.40
2549;BME280;1284;53.520;10.248;2023-01-25T05:15:39;102833.34;;;2.85;83.80
2549;BME280;1284;53.520;10.248;2023-01-25T05:18:06;102834.47;;;2.89;83.76
2549;BME280;1284;53.520;10.248;2023-01-25T05:20:33;102830.84;;;3.00;83.02
2549;BME280;1284;53.520;10.248;2023-01-25T05:22:58;102828.94;;;2.96;83.13
2549;BME280;1284;53.520;10.248;2023-01-25T05:25:24;102820.41;;;2.94;83.37
2549;BME280;1284;53.520;10.248;2023-01-25T05:28:09;102823.00;;;2.89;83.18
2549;BME280;1284;53.520;10.248;2023-01-25T05:30:53;102821.03;;;2.79;83.34
2549;BME280;1284;53.520;10.248;2023-01-25T05:33:22;102816.34;;;2.86;82.90
2549;BME280;1284;53.520;10.248;2023-01-25T05:35:48;102813.59;;;2.81;82.60
2549;BME280;1284;53.520;10.248;2023-01-25T05:38:14;102813.31;;;2.78;83.44
2549;BME280;1284;53.520;10.248;2023-01-25T05:40:41;102817.13;;;2.87;83.48
2549;BME280;1284;53.520;10.248;2023-01-25T05:43:07;102802.81;;;2.93;82.97
2549;BME280;1284;53.520;10.248;2023-01-25T05:45:32;102807.94;;;2.72;83.80
2549;BME280;1284;53.520;10.248;2023-01-25T05:47:59;102801.63;;;2.79;83.84
2549;BME280;1284;53.520;10.248;2023-01-25T05:50:26;102806.00;;;2.90;83.61
2549;BME280;1284;53.520;10.248;2023-01-25T05:53:14;102807.19;;;2.77;83.96
2549;BME280;1284;53.520;10.248;2023-01-25T05:55:40;102807.13;;;2.72;84.29
2549;BME280;1284;53.520;10.248;2023-01-25T05:58:08;102793.00;;;2.93;82.95
2549;BME280;1284;53.520;10.248;2023-01-25T06:00:34;102798.31;;;2.93;83.36
2549;BME280;1284;53.520;10.248;2023-01-25T06:03:01;102798.84;;;2.90;83.22
2549;BME280;1284;53.520;10.248;2023-01-25T06:05:27;102799.34;;;2.65;84.10
2549;BME280;1284;53.520;10.248;2023-01-25T06:07:53;102785.03;;;2.71;84.41
2549;BME280;1284;53.520;10.248;2023-01-25T06:10:21;102790.09;;;2.73;84.29
2549;BME280;1284;53.520;10.248;2023-01-25T06:12:48;102776.63;;;2.80;84.11
2549;BME280;1284;53.520;10.248;2023-01-25T06:15:14;102782.25;;;2.83;83.15
2549;BME280;1284;53.520;10.248;2023-01-25T06:17:40;102793.75;;;2.89;83.44
2549;BME280;1284;53.520;10.248;2023-01-25T06:20:22;102779.84;;;2.82;83.79
2549;BME280;1284;53.520;10.248;2023-01-25T06:23:03;102787.56;;;2.83;84.22
2549;BME280;1284;53.520;10.248;2023-01-25T06:25:28;102777.63;;;3.00;83.53
2549;BME280;1284;53.520;10.248;2023-01-25T06:27:54;102786.78;;;3.09;83.15
2549;BME280;1284;53.520;10.248;2023-01-25T06:30:19;102794.47;;;3.06;83.05
2549;BME280;1284;53.520;10.248;2023-01-25T06:32:45;102789.59;;;2.98;83.38
2549;BME280;1284;53.520;10.248;2023-01-25T06:35:10;102786.22;;;2.81;83.58
2549;BME280;1284;53.520;10.248;2023-01-25T06:37:36;102786.66;;;2.94;83.24
2549;BME280;1284;53.520;10.248;2023-01-25T06:40:01;102799.38;;;2.92;83.17
2549;BME280;1284;53.520;10.248;2023-01-25T06:42:27;102784.31;;;2.76;83.75
2549;BME280;1284;53.520;10.248;2023-01-25T06:44:52;102793.41;;;2.80;84.11
2549;BME280;1284;53.520;10.248;2023-01-25T06:47:18;102795.53;;;2.83;84.03
2549;BME280;1284;53.520;10.248;2023-01-25T06:49:43;102800.97;;;2.93;83.33
2549;BME280;1284;53.520;10.248;2023-01-25T06:52:09;102794.41;;;3.01;83.01
2549;BME280;1284;53.520;10.248;2023-01-25T06:54:34;102799.38;;;2.92;83.04
2549;BME280;1284;53.520;10.248;2023-01-25T06:57:00;102805.03;;;2.74;83.11
2549;BME280;1284;53.520;10.248;2023-01-25T06:59:25;102798.59;;;2.48;84.28
2549;BME280;1284;53.520;10.248;2023-01-25T07:01:50;102804.72;;;2.49;84.61
2549;BME280;1284;53.520;10.248;2023-01-25T07:07:01;102796.88;;;2.59;84.52
2549;BME280;1284;53.520;10.248;2023-01-25T07:09:27;102797.66;;;2.59;84.49
2549;BME280;1284;53.520;10.248;2023-01-25T07:11:52;102782.59;;;2.65;84.87
2549;BME280;1284;53.520;10.248;2023-01-25T07:14:18;102783.19;;;2.72;84.35
2549;BME280;1284;53.520;10.248;2023-01-25T07:16:43;102782.75;;;2.80;84.71
2549;BME280;1284;53.520;10.248;2023-01-25T07:19:10;102784.31;;;2.76;85.02
2549;BME280;1284;53.520;10.248;2023-01-25T07:21:39;102777.34;;;2.97;84.92
2549;BME280;1284;53.520;10.248;2023-01-25T07:24:04;102771.75;;;2.98;84.70
2549;BME280;1284;53.520;10.248;2023-01-25T07:26:31;102769.31;;;2.92;85.31
2549;BME280;1284;53.520;10.248;2023-01-25T07:28:57;102761.59;;;2.90;85.06
2549;BME280;1284;53.520;10.248;2023-01-25T07:31:24;102773.47;;;3.09;84.24
2549;BME280;1284;53.520;10.248;2023-01-25T07:33:52;102766.44;;;2.98;83.32
2549;BME280;1284;53.520;10.248;2023-01-25T07:36:18;102758.97;;;2.95;83.53
2549;BME280;1284;53.520;10.248;2023-01-25T07:38:43;102757.72;;;2.76;84.76
2549;BME280;1284;53.520;10.248;2023-01-25T07:41:09;102755.66;;;2.83;84.64
2549;BME280;1284;53.520;10.248;2023-01-25T07:43:35;102757.72;;;3.03;83.83
2549;BME280;1284;53.520;10.248;2023-01-25T07:46:07;102750.88;;;2.85;84.33
2549;BME280;1284;53.520;10.248;2023-01-25T07:48:36;102741.66;;;2.66;85.16
2549;BME280;1284;53.520;10.248;2023-01-25T07:51:04;102741.16;;;2.69;85.31
2549;BME280;1284;53.520;10.248;2023-01-25T07:53:59;102741.41;;;2.94;84.78
2549;BME280;1284;53.520;10.248;2023-01-25T07:56:31;102753.47;;;3.02;84.27
2549;BME280;1284;53.520;10.248;2023-01-25T07:58:57;102748.97;;;3.07;84.05
2549;BME280;1284;53.520;10.248;2023-01-25T08:01:25;102738.06;;;3.09;83.68
2549;BME280;1284;53.520;10.248;2023-01-25T08:03:51;102740.69;;;3.04;83.65
2549;BME280;1284;53.520;10.248;2023-01-25T08:06:25;102730.84;;;3.04;83.82
2549;BME280;1284;53.520;10.248;2023-01-25T08:08:56;102721.72;;;2.95;83.73
2549;BME280;1284;53.520;10.248;2023-01-25T08:11:24;102724.13;;;2.97;83.84
2549;BME280;1284;53.520;10.248;2023-01-25T08:13:51;102716.78;;;3.09;83.49
2549;BME280;1284;53.520;10.248;2023-01-25T08:16:23;102713.38;;;2.87;83.72
2549;BME280;1284;53.520;10.248;2023-01-25T08:18:50;102713.31;;;2.77;84.57
2549;BME280;1284;53.520;10.248;2023-01-25T08:21:16;102709.09;;;2.81;85.03
2549;BME280;1284;53.520;10.248;2023-01-25T08:23:42;102712.09;;;2.89;84.60
2549;BME280;1284;53.520;10.248;2023-01-25T08:26:09;102706.47;;;2.86;85.23
2549;BME280;1284;53.520;10.248;2023-01-25T08:28:35;102700.84;;;2.82;85.41
2549;BME280;1284;53.520;10.248;2023-01-25T08:31:13;102699.75;;;2.78;85.38
2549;BME280;1284;53.520;10.248;2023-01-25T08:33:39;102688.25;;;2.72;85.04
2549;BME280;1284;53.520;10.248;2023-01-25T08:36:05;102698.69;;;2.79;85.94
2549;BME280;1284;53.520;10.248;2023-01-25T08:38:33;102700.25;;;2.75;85.96
2549;BME280;1284;53.520;10.248;2023-01-25T08:41:06;102697.72;;;2.63;86.55
2549;BME280;1284;53.520;10.248;2023-01-25T08:43:32;102693.13;;;2.54;87.06
2549;BME280;1284;53.520;10.248;2023-01-25T08:48:43;102686.56;;;2.88;85.43
2549;BME280;1284;53.520;10.248;2023-01-25T08:51:11;102675.06;;;2.83;85.42
2549;BME280;1284;53.520;10.248;2023-01-25T08:53:37;102692.81;;;2.77;85.32
2549;BME280;1284;53.520;10.248;2023-01-25T08:56:08;102669.75;;;2.83;84.99
2549;BME280;1284;53.520;10.248;2023-01-25T09:01:21;102666.69;;;2.69;85.87
2549;BME280;1284;53.520;10.248;2023-01-25T09:03:48;102661.81;;;2.88;85.71
2549;BME280;1284;53.520;10.248;2023-01-25T09:06:14;102656.28;;;2.94;84.84
2549;BME280;1284;53.520;10.248;2023-01-25T09:08:40;102657.53;;;2.87;84.54
2549;BME280;1284;53.520;10.248;2023-01-25T09:11:11;102657.78;;;2.85;85.10
2549;BME280;1284;53.520;10.248;2023-01-25T09:13:37;102643.28;;;2.98;85.19
2549;BME280;1284;53.520;10.248;2023-01-25T09:16:13;102650.25;;;3.04;84.39
2549;BME280;1284;53.520;10.248;2023-01-25T09:18:40;102644.31;;;2.97;84.87
2549;BME280;1284;53.520;10.248;2023-01-25T09:21:11;102643.63;;;3.11;84.10
2549;BME280;1284;53.520;10.248;2023-01-25T09:23:37;102647.25;;;3.00;84.10
2549;BME280;1284;53.520;10.248;2023-01-25T09:26:03;102630.16;;;2.91;84.29
2549;BME280;1284;53.520;10.248;2023-01-25T09:28:30;102642.47;;;3.02;84.31
2549;BME280;1284;53.520;10.248;2023-01-25T09:31:00;102633.75;;;3.07;84.11
2549;BME280;1284;53.520;10.248;2023-01-25T09:33:47;102642.09;;;3.20;83.88
2549;BME280;1284;53.520;10.248;2023-01-25T09:36:12;102647.69;;;3.19;83.49
2549;BME280;1284;53.520;10.248;2023-01-25T09:38:38;102630.00;;;3.03;83.87
2549;BME280;1284;53.520;10.248;2023-01-25T09:47:04;102633.72;;;3.02;83.71
2549;BME280;1284;53.520;10.248;2023-01-25T09:54:45;102628.88;;;2.94;84.59
2549;BME280;1284;53.520;10.248;2023-01-25T09:57:18;102627.38;;;2.76;84.23
2549;BME280;1284;53.520;10.248;2023-01-25T09:59:47;102620.06;;;2.93;84.20
2549;BME280;1284;53.520;10.248;2023-01-25T10:05:00;102613.72;;;2.94;83.95
2549;BME280;1284;53.520;10.248;2023-01-25T10:08:02;102603.34;;;2.98;84.47
2549;BME280;1284;53.520;10.248;2023-01-25T10:10:40;102606.84;;;3.03;83.69
2549;BME280;1284;53.520;10.248;2023-01-25T10:13:20;102613.81;;;3.09;83.51
2549;BME280;1284;53.520;10.248;2023-01-25T10:15:49;102607.72;;;3.14;83.28
2549;BME280;1284;53.520;10.248;2023-01-25T10:18:28;102609.28;;;3.10;83.57
2549;BME280;1284;53.520;10.248;2023-01-25T10:26:41;102589.38;;;3.17;83.60
2549;BME280;1284;53.520;10.248;2023-01-25T10:29:12;102579.84;;;3.26;82.98
2549;BME280;1284;53.520;10.248;2023-01-25T10:31:51;102570.34;;;3.40;82.11
2549;BME280;1284;53.520;10.248;2023-01-25T10:34:25;102566.00;;;3.24;82.68
2549;BME280;1284;53.520;10.248;2023-01-25T10:37:13;102566.22;;;3.18;82.97
2549;BME280;1284;53.520;10.248;2023-01-25T10:42:25;102560.75;;;3.39;82.72
2549;BME280;1284;53.520;10.248;2023-01-25T10:44:51;102554.88;;;3.37;82.97
2549;BME280;1284;53.520;10.248;2023-01-25T10:52:27;102553.50;;;3.30;83.27
2549;BME280;1284;53.520;10.248;2023-01-25T10:55:15;102543.75;;;2.94;84.14
2549;BME280;1284;53.520;10.248;2023-01-25T10:57:43;102537.13;;;3.01;84.56
2549;BME280;1284;53.520;10.248;2023-01-25T11:00:23;102529.97;;;3.07;84.17
2549;BME280;1284;53.520;10.248;2023-01-25T11:05:36;102529.72;;;3.08;84.54
2549;BME280;1284;53.520;10.248;2023-01-25T11:10:50;102520.59;;;2.94;84.53
2549;BME280;1284;53.520;10.248;2023-01-25T11:15:41;102508.56;;;2.87;86.12
2549;BME280;1284;53.520;10.248;2023-01-25T11:18:15;102499.59;;;2.98;85.88
2549;BME280;1284;53.520;10.248;2023-01-25T11:20:42;102495.22;;;3.28;84.46
2549;BME280;1284;53.520;10.248;2023-01-25T11:23:24;102485.94;;;3.31;84.43
2549;BME280;1284;53.520;10.248;2023-01-25T11:25:50;102488.88;;;3.34;84.13
2549;BME280;1284;53.520;10.248;2023-01-25T11:28:23;102481.13;;;3.33;82.74
2549;BME280;1284;53.520;10.248;2023-01-25T11:30:50;102478.78;;;3.46;82.32
2549;BME280;1284;53.520;10.248;2023-01-25T11:33:18;102475.06;;;3.42;82.21
2549;BME280;1284;53.520;10.248;2023-01-25T11:38:24;102465.97;;;3.38;81.96
2549;BME280;1284;53.520;10.248;2023-01-25T11:51:30;102440.91;;;3.29;82.56
2549;BME280;1284;53.520;10.248;2023-01-25T12:21:51;102359.19;;;3.15;83.83
2549;BME280;1284;53.520;10.248;2023-01-25T12:29:37;102347.69;;;3.04;84.73
2549;BME280;1284;53.520;10.248;2023-01-25T12:32:22;102349.34;;;3.20;84.18
2549;BME280;1284;53.520;10.248;2023-01-25T12:34:52;102340.56;;;3.15;83.67
2549;BME280;1284;53.520;10.248;2023-01-25T12:37:35;102325.13;;;3.17;83.71
2549;BME280;1284;53.520;10.248;2023-01-25T12:40:08;102320.59;;;3.22;83.45
2549;BME280;1284;53.520;10.248;2023-01-25T12:42:44;102311.84;;;3.27;83.53
2549;BME280;1284;53.520;10.248;2023-01-25T12:45:16;102308.38;;;3.21;83.02
2549;BME280;1284;53.520;10.248;2023-01-25T12:47:56;102302.78;;;3.33;83.17
2549;BME280;1284;53.520;10.248;2023-01-25T12:50:41;102300.94;;;3.38;82.91
2549;BME280;1284;53.520;10.248;2023-01-25T12:56:16;102287.09;;;3.36;82.93
2549;BME280;1284;53.520;10.248;2023-01-25T12:58:52;102292.69;;;3.40;82.77
2549;BME280;1284;53.520;10.248;2023-01-25T13:01:34;102281.47;;;3.13;82.95
2549;BME280;1284;53.520;10.248;2023-01-25T13:07:11;102279.09;;;3.21;82.95
2549;BME280;1284;53.520;10.248;2023-01-25T13:09:57;102274.81;;;3.05;83.40
2549;BME280;1284;53.520;10.248;2023-01-25T13:12:23;102271.34;;;3.20;82.91
2549;BME280;1284;53.520;10.248;2023-01-25T13:14:49;102275.59;;;3.16;83.54
2549;BME280;1284;53.520;10.248;2023-01-25T13:17:28;102265.22;;;3.14;83.64
2549;BME280;1284;53.520;10.248;2023-01-25T13:19:54;102256.75;;;3.17;83.41
2549;BME280;1284;53.520;10.248;2023-01-25T13:25:18;102273.50;;;3.38;82.88
2549;BME280;1284;53.520;10.248;2023-01-25T13:27:44;102267.66;;;3.36;83.13
2549;BME280;1284;53.520;10.248;2023-01-25T13:30:26;102259.13;;;3.49;82.32
2549;BME280;1284;53.520;10.248;2023-01-25T13:32:56;102255.13;;;3.26;82.86
2549;BME280;1284;53.520;10.248;2023-01-25T13:38:24;102227.19;;;3.29;82.86
2549;BME280;1284;53.520;10.248;2023-01-25T13:41:10;102240.75;;;3.27;83.16
2549;BME280;1284;53.520;10.248;2023-01-25T13:43:38;102231.16;;;2.91;83.31
2549;BME280;1284;53.520;10.248;2023-01-25T13:46:05;102235.41;;;2.87;84.05
2549;BME280;1284;53.520;10.248;2023-01-25T13:48:34;102236.22;;;3.18;83.92
2549;BME280;1284;53.520;10.248;2023-01-25T13:51:03;102236.53;;;3.21;84.37
2549;BME280;1284;53.520;10.248;2023-01-25T13:53:32;102225.59;;;3.28;84.45
2549;BME280;1284;53.520;10.248;2023-01-25T13:56:00;102225.84;;;3.31;83.71
2549;BME280;1284;53.520;10.248;2023-01-25T14:00:57;102219.19;;;3.34;84.09
2549;BME280;1284;53.520;10.248;2023-01-25T14:03:27;102219.19;;;3.14;84.89
2549;BME280;1284;53.520;10.248;2023-01-25T14:05:55;102211.75;;;3.31;84.73
2549;BME280;1284;53.520;10.248;2023-01-25T14:08:21;102216.56;;;3.29;84.69
2549;BME280;1284;53.520;10.248;2023-01-25T14:10:48;102207.47;;;3.40;84.16
2549;BME280;1284;53.520;10.248;2023-01-25T14:13:15;102210.13;;;3.35;83.99
2549;BME280;1284;53.520;10.248;2023-01-25T14:16:09;102204.03;;;3.29;83.74
2549;BME280;1284;53.520;10.248;2023-01-25T14:18:35;102201.34;;;3.29;84.09
2549;BME280;1284;53.520;10.248;2023-01-25T14:21:17;102203.53;;;3.17;84.09
2549;BME280;1284;53.520;10.248;2023-01-25T14:23:44;102196.06;;;3.19;84.33
2549;BME280;1284;53.520;10.248;2023-01-25T14:26:20;102206.69;;;3.24;84.34
2549;BME280;1284;53.520;10.248;2023-01-25T14:28:48;102206.44;;;3.21;84.25
2549;BME280;1284;53.520;10.248;2023-01-25T14:31:19;102201.38;;;3.19;84.54
2549;BME280;1284;53.520;10.248;2023-01-25T14:33:45;102190.75;;;3.09;84.63
2549;BME280;1284;53.520;10.248;2023-01-25T14:36:20;102180.63;;;3.16;84.80
2549;BME280;1284;53.520;10.248;2023-01-25T14:38:45;102177.41;;;3.34;84.42
2549;BME280;1284;53.520;10.248;2023-01-25T14:43:47;102182.22;;;3.22;84.79
2549;BME280;1284;53.520;10.248;2023-01-25T14:48:46;102168.38;;;3.15;85.38
2549;BME280;1284;53.520;10.248;2023-01-25T14:51:25;102161.19;;;3.01;86.56
2549;BME280;1284;53.520;10.248;2023-01-25T14:54:03;102160.94;;;3.07;86.88
2549;BME280;1284;53.520;10.248;2023-01-25T14:56:33;102156.69;;;3.11;86.14
2549;BME280;1284;53.520;10.248;2023-01-25T14:59:02;102161.47;;;3.04;87.15
2549;BME280;1284;53.520;10.248;2023-01-25T15:01:38;102160.66;;;3.14;86.97
2549;BME280;1284;53.520;10.248;2023-01-25T15:04:09;102155.09;;;3.15;87.21
2549;BME280;1284;53.520;10.248;2023-01-25T15:06:47;102155.09;;;3.15;87.04
2549;BME280;1284;53.520;10.248;2023-01-25T15:12:27;102157.19;;;3.08;87.86
2549;BME280;1284;53.520;10.248;2023-01-25T15:14:55;102159.31;;;3.26;87.11
2549;BME280;1284;53.520;10.248;2023-01-25T15:17:42;102162.22;;;3.45;85.98